sensor_id;sensor_type;location;lat;lon;timestamp;P1;durP1;ratioP1;P2;durP2;ratioP2
16577;SDS011;8401;52.528;13.340;2022-12-18T00:00:46;30.43;;;13.67;;
16577;SDS011;8401;52.528;13.340;2022-12-18T00:03:15;36.73;;;15.37;;
16577;SDS011;8401;52.528;13.340;2022-12-18T00:05:48;30.20;;;14.33;;
16577;SDS011;8401;52.528;13.340;2022-12-18T00:08:15;28.03;;;12.50;;
16577;SDS011;8401;52.528;13.340;2022-12-18T00:10:42;29.77;;;12.30;;
16577;SDS011;8401;52.528;13.340;2022-12-18T00:13:08;27.30;;;10.93;;
16577;SDS011;8401;52.528;13.340;2022-12-18T00:15:34;29.27;;;13.77;;
16577;SDS011;8401;52.528;13.340;2022-12-18T00:18:00;33.50;;;13.77;;
16577;SDS011;8401;52.528;13.340;2022-12-18T00:20:26;28.43;;;12.80;;
16577;SDS011;8401;52.528;13.340;2022-12-18T00:22:54;29.27;;;12.60;;
16577;SDS011;8401;52.528;13.340;2022-12-18T00:25:20;31.93;;;14.03;;
16577;SDS011;8401;52.528;13.340;2022-12-18T00:27:46;30.97;;;12.90;;
16577;SDS011;8401;52.528;13.340;2022-12-18T00:30:12;27.83;;;12.00;;
16577;SDS011;8401;52.528;13.340;2022-12-18T00:32:38;27.53;;;10.97;;
16577;SDS011;8401;52.528;13.340;2022-12-18T00:35:04;25.73;;;10.50;;
16577;SDS011;8401;52.528;13.340;2022-12-18T00:37:31;26.40;;;10.07;;
16577;SDS011;8401;52.528;13.340;2022-12-18T00:39:58;26.53;;;9.47;;
16577;SDS011;8401;52.528;13.340;2022-12-18T00:42:27;23.30;;;10.67;;
16577;SDS011;8401;52.528;13.340;2022-12-18T00:45:11;24.03;;;9.93;;
16577;SDS011;8401;52.528;13.340;2022-12-18T00:47:37;25.80;;;11.43;;
16577;SDS011;8401;52.528;13.340;2022-12-18T00:50:03;27.37;;;11.43;;
16577;SDS011;8401;52.528;13.340;2022-12-18T00:52:29;32.40;;;12.63;;
16577;SDS011;8401;52.528;13.340;2022-12-18T00:54:55;30.30;;;12.83;;
16577;SDS011;8401;52.528;13.340;2022-12-18T00:57:20;31.23;;;12.90;;
16577;SDS011;8401;52.528;13.340;2022-12-18T00:59:46;34.43;;;14.10;;
16577;SDS011;8401;52.528;13.340;2022-12-18T01:02:12;32.37;;;12.60;;
16577;SDS011;8401;52.528;13.340;2022-12-18T01:04:37;30.30;;;13.40;;
16577;SDS011;8401;52.528;13.340;2022-12-18T01:07:03;27.20;;;10.97;;
16577;SDS011;8401;52.528;13.340;2022-12-18T01:09:28;24.83;;;9.07;;
16577;SDS011;8401;52.528;13.340;2022-12-18T01:11:54;25.33;;;11.27;;
16577;SDS011;8401;52.528;13.340;2022-12-18T01:14:20;28.63;;;10.93;;
16577;SDS011;8401;52.528;13.340;2022-12-18T01:16:46;25.73;;;11.03;;
16577;SDS011;8401;52.528;13.340;2022-12-18T01:19:11;31.70;;;13.40;;
16577;SDS011;8401;52.528;13.340;2022-12-18T01:21:37;28.33;;;12.13;;
16577;SDS011;8401;52.528;13.340;2022-12-18T01:24:03;32.13;;;12.23;;
16577;SDS011;8401;52.528;13.340;2022-12-18T01:26:29;29.20;;;13.43;;
16577;SDS011;8401;52.528;13.340;2022-12-18T01:28:55;31.40;;;13.93;;
16577;SDS011;8401;52.528;13.340;2022-12-18T01:31:23;34.20;;;12.50;;
16577;SDS011;8401;52.528;13.340;2022-12-18T01:33:51;20.13;;;9.00;;
16577;SDS011;8401;52.528;13.340;2022-12-18T01:36:21;30.67;;;12.63;;
16577;SDS011;8401;52.528;13.340;2022-12-18T01:38:49;29.83;;;12.67;;
16577;SDS011;8401;52.528;13.340;2022-12-18T01:41:17;36.67;;;13.40;;
16577;SDS011;8401;52.528;13.340;2022-12-18T01:43:54;33.07;;;13.13;;
16577;SDS011;8401;52.528;13.340;2022-12-18T01:46:22;28.70;;;12.70;;
16577;SDS011;8401;52.528;13.340;2022-12-18T01:48:50;28.10;;;13.13;;
16577;SDS011;8401;52.528;13.340;2022-12-18T01:51:18;31.13;;;13.50;;
16577;SDS011;8401;52.528;13.340;2022-12-18T01:53:44;33.47;;;13.73;;
16577;SDS011;8401;52.528;13.340;2022-12-18T01:56:12;35.30;;;13.87;;
16577;SDS011;8401;52.528;13.340;2022-12-18T01:58:46;36.43;;;16.63;;
16577;SDS011;8401;52.528;13.340;2022-12-18T02:01:31;29.77;;;11.77;;
16577;SDS011;8401;52.528;13.340;2022-12-18T02:04:14;36.10;;;14.73;;
16577;SDS011;8401;52.528;13.340;2022-12-18T02:07:36;34.83;;;14.13;;
16577;SDS011;8401;52.528;13.340;2022-12-18T02:12:23;34.23;;;13.70;;
16577;SDS011;8401;52.528;13.340;2022-12-18T02:15:00;36.30;;;15.80;;
16577;SDS011;8401;52.528;13.340;2022-12-18T02:17:32;39.10;;;15.03;;
16577;SDS011;8401;52.528;13.340;2022-12-18T02:27:59;36.50;;;12.50;;
16577;SDS011;8401;52.528;13.340;2022-12-18T02:30:27;29.73;;;10.73;;
16577;SDS011;8401;52.528;13.340;2022-12-18T02:32:58;31.50;;;13.20;;
16577;SDS011;8401;52.528;13.340;2022-12-18T02:35:27;31.20;;;13.80;;
16577;SDS011;8401;52.528;13.340;2022-12-18T02:37:55;37.00;;;13.27;;
16577;SDS011;8401;52.528;13.340;2022-12-18T02:40:23;33.00;;;12.07;;
16577;SDS011;8401;52.528;13.340;2022-12-18T02:42:50;28.33;;;11.57;;
16577;SDS011;8401;52.528;13.340;2022-12-18T02:45:16;37.30;;;13.33;;
16577;SDS011;8401;52.528;13.340;2022-12-18T02:47:43;29.83;;;12.17;;
16577;SDS011;8401;52.528;13.340;2022-12-18T02:56:14;29.50;;;13.43;;
16577;SDS011;8401;52.528;13.340;2022-12-18T03:01:16;31.37;;;13.00;;
16577;SDS011;8401;52.528;13.340;2022-12-18T03:06:14;29.50;;;10.93;;
16577;SDS011;8401;52.528;13.340;2022-12-18T03:08:49;29.53;;;12.47;;
16577;SDS011;8401;52.528;13.340;2022-12-18T03:11:19;32.60;;;12.83;;
16577;SDS011;8401;52.528;13.340;2022-12-18T03:14:05;41.17;;;13.93;;
16577;SDS011;8401;52.528;13.340;2022-12-18T03:16:32;29.97;;;13.07;;
16577;SDS011;8401;52.528;13.340;2022-12-18T03:19:01;31.00;;;11.33;;
16577;SDS011;8401;52.528;13.340;2022-12-18T03:21:45;30.17;;;13.83;;
16577;SDS011;8401;52.528;13.340;2022-12-18T03:24:12;32.73;;;12.97;;
16577;SDS011;8401;52.528;13.340;2022-12-18T03:26:43;28.57;;;13.23;;
16577;SDS011;8401;52.528;13.340;2022-12-18T03:29:58;29.87;;;11.60;;
16577;SDS011;8401;52.528;13.340;2022-12-18T03:34:56;30.53;;;12.30;;
16577;SDS011;8401;52.528;13.340;2022-12-18T03:37:24;32.47;;;13.50;;
16577;SDS011;8401;52.528;13.340;2022-12-18T03:39:50;29.97;;;12.13;;
16577;SDS011;8401;52.528;13.340;2022-12-18T03:55:24;33.13;;;12.97;;
16577;SDS011;8401;52.528;13.340;2022-12-18T03:57:52;34.87;;;13.73;;
16577;SDS011;8401;52.528;13.340;2022-12-18T04:00:19;44.07;;;15.83;;
16577;SDS011;8401;52.528;13.340;2022-12-18T04:02:48;26.93;;;9.77;;
16577;SDS011;8401;52.528;13.340;2022-12-18T04:05:20;37.13;;;14.83;;
16577;SDS011;8401;52.528;13.340;2022-12-18T04:07:49;40.83;;;16.10;;
16577;SDS011;8401;52.528;13.340;2022-12-18T04:10:17;44.67;;;15.97;;
16577;SDS011;8401;52.528;13.340;2022-12-18T04:12:43;45.83;;;18.13;;
16577;SDS011;8401;52.528;13.340;2022-12-18T04:15:09;41.93;;;17.63;;
16577;SDS011;8401;52.528;13.340;2022-12-18T04:17:36;41.77;;;16.80;;
16577;SDS011;8401;52.528;13.340;2022-12-18T04:20:03;47.03;;;19.47;;
16577;SDS011;8401;52.528;13.340;2022-12-18T04:22:29;48.70;;;17.80;;
16577;SDS011;8401;52.528;13.340;2022-12-18T04:24:55;43.43;;;16.47;;
16577;SDS011;8401;52.528;13.340;2022-12-18T04:27:20;49.60;;;17.97;;
16577;SDS011;8401;52.528;13.340;2022-12-18T04:29:46;48.10;;;15.33;;
16577;SDS011;8401;52.528;13.340;2022-12-18T04:32:12;54.00;;;19.50;;
16577;SDS011;8401;52.528;13.340;2022-12-18T04:34:37;53.70;;;17.73;;
16577;SDS011;8401;52.528;13.340;2022-12-18T04:37:03;39.10;;;14.00;;
16577;SDS011;8401;52.528;13.340;2022-12-18T04:39:29;51.63;;;17.50;;
16577;SDS011;8401;52.528;13.340;2022-12-18T04:41:54;50.77;;;17.77;;
16577;SDS011;8401;52.528;13.340;2022-12-18T04:44:20;39.90;;;14.30;;
16577;SDS011;8401;52.528;13.340;2022-12-18T04:46:46;61.90;;;19.03;;
16577;SDS011;8401;52.528;13.340;2022-12-18T04:49:11;64.73;;;21.10;;
16577;SDS011;8401;52.528;13.340;2022-12-18T04:51:37;46.60;;;16.13;;
16577;SDS011;8401;52.528;13.340;2022-12-18T04:54:03;54.93;;;18.40;;
16577;SDS011;8401;52.528;13.340;2022-12-18T04:56:30;31.03;;;10.93;;
16577;SDS011;8401;52.528;13.340;2022-12-18T04:58:57;44.87;;;16.03;;
16577;SDS011;8401;52.528;13.340;2022-12-18T05:01:22;53.27;;;17.97;;
16577;SDS011;8401;52.528;13.340;2022-12-18T05:03:48;31.70;;;10.13;;
16577;SDS011;8401;52.528;13.340;2022-12-18T05:06:13;40.73;;;14.80;;
16577;SDS011;8401;52.528;13.340;2022-12-18T05:08:39;44.50;;;16.63;;
16577;SDS011;8401;52.528;13.340;2022-12-18T05:11:09;42.83;;;15.50;;
16577;SDS011;8401;52.528;13.340;2022-12-18T05:13:36;42.27;;;16.87;;
16577;SDS011;8401;52.528;13.340;2022-12-18T05:16:03;44.47;;;14.67;;
16577;SDS011;8401;52.528;13.340;2022-12-18T05:18:29;52.13;;;17.27;;
16577;SDS011;8401;52.528;13.340;2022-12-18T05:20:55;52.70;;;19.63;;
16577;SDS011;8401;52.528;13.340;2022-12-18T05:23:21;47.97;;;15.57;;
16577;SDS011;8401;52.528;13.340;2022-12-18T05:25:51;47.37;;;17.60;;
16577;SDS011;8401;52.528;13.340;2022-12-18T05:28:19;53.10;;;16.17;;
16577;SDS011;8401;52.528;13.340;2022-12-18T05:30:49;55.03;;;18.87;;
16577;SDS011;8401;52.528;13.340;2022-12-18T05:33:15;52.73;;;18.33;;
16577;SDS011;8401;52.528;13.340;2022-12-18T05:35:41;48.43;;;17.53;;
16577;SDS011;8401;52.528;13.340;2022-12-18T05:38:07;48.43;;;17.47;;
16577;SDS011;8401;52.528;13.340;2022-12-18T05:40:33;44.00;;;15.87;;
16577;SDS011;8401;52.528;13.340;2022-12-18T05:42:58;42.60;;;14.97;;
16577;SDS011;8401;52.528;13.340;2022-12-18T05:45:24;37.97;;;14.40;;
16577;SDS011;8401;52.528;13.340;2022-12-18T05:47:49;37.57;;;13.50;;
16577;SDS011;8401;52.528;13.340;2022-12-18T05:50:15;40.07;;;15.53;;
16577;SDS011;8401;52.528;13.340;2022-12-18T05:52:41;42.97;;;15.40;;
16577;SDS011;8401;52.528;13.340;2022-12-18T05:55:06;38.37;;;14.00;;
16577;SDS011;8401;52.528;13.340;2022-12-18T05:57:32;39.43;;;15.50;;
16577;SDS011;8401;52.528;13.340;2022-12-18T05:59:58;36.23;;;12.50;;
16577;SDS011;8401;52.528;13.340;2022-12-18T06:02:23;33.97;;;13.17;;
16577;SDS011;8401;52.528;13.340;2022-12-18T06:04:49;51.90;;;20.43;;
16577;SDS011;8401;52.528;13.340;2022-12-18T06:07:15;44.37;;;17.67;;
16577;SDS011;8401;52.528;13.340;2022-12-18T06:09:40;35.53;;;12.97;;
16577;SDS011;8401;52.528;13.340;2022-12-18T06:12:06;46.03;;;16.63;;
16577;SDS011;8401;52.528;13.340;2022-12-18T06:14:32;51.00;;;19.43;;
16577;SDS011;8401;52.528;13.340;2022-12-18T06:16:57;50.63;;;18.30;;
16577;SDS011;8401;52.528;13.340;2022-12-18T06:19:23;51.40;;;19.73;;
16577;SDS011;8401;52.528;13.340;2022-12-18T06:21:48;48.37;;;18.87;;
16577;SDS011;8401;52.528;13.340;2022-12-18T06:24:15;50.40;;;18.57;;
16577;SDS011;8401;52.528;13.340;2022-12-18T06:26:40;49.13;;;18.37;;
16577;SDS011;8401;52.528;13.340;2022-12-18T06:29:06;57.27;;;21.03;;
16577;SDS011;8401;52.528;13.340;2022-12-18T06:31:32;50.87;;;18.63;;
16577;SDS011;8401;52.528;13.340;2022-12-18T06:33:58;30.20;;;11.83;;
16577;SDS011;8401;52.528;13.340;2022-12-18T06:36:23;50.27;;;18.83;;
16577;SDS011;8401;52.528;13.340;2022-12-18T06:38:49;50.00;;;18.20;;
16577;SDS011;8401;52.528;13.340;2022-12-18T06:41:19;51.47;;;19.20;;
16577;SDS011;8401;52.528;13.340;2022-12-18T06:43:45;53.10;;;18.97;;
16577;SDS011;8401;52.528;13.340;2022-12-18T06:46:11;51.73;;;17.33;;
16577;SDS011;8401;52.528;13.340;2022-12-18T06:48:38;39.23;;;16.80;;
16577;SDS011;8401;52.528;13.340;2022-12-18T06:51:03;46.83;;;16.73;;
16577;SDS011;8401;52.528;13.340;2022-12-18T06:53:29;31.60;;;11.13;;
16577;SDS011;8401;52.528;13.340;2022-12-18T06:55:59;46.37;;;16.87;;
16577;SDS011;8401;52.528;13.340;2022-12-18T06:58:29;43.17;;;14.97;;
16577;SDS011;8401;52.528;13.340;2022-12-18T07:00:59;45.03;;;17.00;;
16577;SDS011;8401;52.528;13.340;2022-12-18T07:03:26;45.70;;;16.27;;
16577;SDS011;8401;52.528;13.340;2022-12-18T07:05:51;38.77;;;15.20;;
16577;SDS011;8401;52.528;13.340;2022-12-18T07:08:17;46.43;;;17.57;;
16577;SDS011;8401;52.528;13.340;2022-12-18T07:10:43;39.83;;;14.63;;
16577;SDS011;8401;52.528;13.340;2022-12-18T07:13:08;52.37;;;18.57;;
16577;SDS011;8401;52.528;13.340;2022-12-18T07:15:34;49.77;;;18.70;;
16577;SDS011;8401;52.528;13.340;2022-12-18T07:18:00;36.57;;;12.77;;
16577;SDS011;8401;52.528;13.340;2022-12-18T07:20:26;35.03;;;13.30;;
16577;SDS011;8401;52.528;13.340;2022-12-18T07:22:51;30.80;;;11.13;;
16577;SDS011;8401;52.528;13.340;2022-12-18T07:25:17;18.97;;;7.10;;
16577;SDS011;8401;52.528;13.340;2022-12-18T07:27:42;24.40;;;9.93;;
16577;SDS011;8401;52.528;13.340;2022-12-18T07:30:08;29.60;;;9.77;;
16577;SDS011;8401;52.528;13.340;2022-12-18T07:32:34;39.43;;;15.87;;
16577;SDS011;8401;52.528;13.340;2022-12-18T07:35:00;39.10;;;14.93;;
16577;SDS011;8401;52.528;13.340;2022-12-18T07:37:26;40.03;;;15.23;;
16577;SDS011;8401;52.528;13.340;2022-12-18T07:39:51;27.80;;;10.50;;
16577;SDS011;8401;52.528;13.340;2022-12-18T07:42:17;18.40;;;7.20;;
16577;SDS011;8401;52.528;13.340;2022-12-18T07:44:58;38.77;;;15.87;;
16577;SDS011;8401;52.528;13.340;2022-12-18T07:47:24;35.33;;;13.80;;
16577;SDS011;8401;52.528;13.340;2022-12-18T07:49:50;32.83;;;13.30;;
16577;SDS011;8401;52.528;13.340;2022-12-18T07:52:16;38.20;;;14.13;;
16577;SDS011;8401;52.528;13.340;2022-12-18T07:54:41;42.20;;;16.17;;
16577;SDS011;8401;52.528;13.340;2022-12-18T07:57:07;32.70;;;12.53;;
16577;SDS011;8401;52.528;13.340;2022-12-18T07:59:33;27.17;;;9.50;;
16577;SDS011;8401;52.528;13.340;2022-12-18T08:01:59;30.13;;;12.90;;
16577;SDS011;8401;52.528;13.340;2022-12-18T08:04:25;37.60;;;13.10;;
16577;SDS011;8401;52.528;13.340;2022-12-18T08:06:50;44.60;;;16.80;;
16577;SDS011;8401;52.528;13.340;2022-12-18T08:09:16;34.77;;;12.83;;
16577;SDS011;8401;52.528;13.340;2022-12-18T08:11:42;38.83;;;13.03;;
16577;SDS011;8401;52.528;13.340;2022-12-18T08:14:08;30.53;;;11.67;;
16577;SDS011;8401;52.528;13.340;2022-12-18T08:16:34;47.70;;;16.50;;
16577;SDS011;8401;52.528;13.340;2022-12-18T08:19:00;43.73;;;17.23;;
16577;SDS011;8401;52.528;13.340;2022-12-18T08:21:27;23.07;;;11.43;;
16577;SDS011;8401;52.528;13.340;2022-12-18T08:23:55;46.10;;;15.63;;
16577;SDS011;8401;52.528;13.340;2022-12-18T08:26:22;36.37;;;13.90;;
16577;SDS011;8401;52.528;13.340;2022-12-18T08:28:50;39.83;;;16.00;;
16577;SDS011;8401;52.528;13.340;2022-12-18T08:31:16;24.80;;;10.23;;
16577;SDS011;8401;52.528;13.340;2022-12-18T08:33:43;45.90;;;17.07;;
16577;SDS011;8401;52.528;13.340;2022-12-18T08:36:08;43.53;;;15.83;;
16577;SDS011;8401;52.528;13.340;2022-12-18T08:38:35;47.23;;;15.87;;
16577;SDS011;8401;52.528;13.340;2022-12-18T08:43:27;39.67;;;15.87;;
16577;SDS011;8401;52.528;13.340;2022-12-18T08:46:12;39.23;;;14.60;;
16577;SDS011;8401;52.528;13.340;2022-12-18T08:48:38;40.40;;;15.83;;
16577;SDS011;8401;52.528;13.340;2022-12-18T08:51:03;39.40;;;14.10;;
16577;SDS011;8401;52.528;13.340;2022-12-18T08:53:29;23.37;;;10.03;;
16577;SDS011;8401;52.528;13.340;2022-12-18T08:55:56;29.33;;;12.33;;
16577;SDS011;8401;52.528;13.340;2022-12-18T08:58:21;40.27;;;13.67;;
16577;SDS011;8401;52.528;13.340;2022-12-18T09:00:47;26.70;;;10.27;;
16577;SDS011;8401;52.528;13.340;2022-12-18T09:03:13;32.43;;;12.77;;
16577;SDS011;8401;52.528;13.340;2022-12-18T09:05:40;33.57;;;12.53;;
16577;SDS011;8401;52.528;13.340;2022-12-18T09:08:06;41.60;;;16.23;;
16577;SDS011;8401;52.528;13.340;2022-12-18T09:10:31;43.43;;;17.33;;
16577;SDS011;8401;52.528;13.340;2022-12-18T09:12:58;39.33;;;15.37;;
16577;SDS011;8401;52.528;13.340;2022-12-18T09:15:23;36.47;;;14.30;;
16577;SDS011;8401;52.528;13.340;2022-12-18T09:17:50;39.17;;;16.40;;
16577;SDS011;8401;52.528;13.340;2022-12-18T09:20:17;38.23;;;14.00;;
16577;SDS011;8401;52.528;13.340;2022-12-18T09:22:43;23.70;;;9.90;;
16577;SDS011;8401;52.528;13.340;2022-12-18T09:25:09;26.73;;;12.13;;
16577;SDS011;8401;52.528;13.340;2022-12-18T09:27:35;24.20;;;10.40;;
16577;SDS011;8401;52.528;13.340;2022-12-18T09:30:00;34.50;;;13.63;;
16577;SDS011;8401;52.528;13.340;2022-12-18T09:32:27;37.90;;;13.53;;
16577;SDS011;8401;52.528;13.340;2022-12-18T09:34:52;34.23;;;14.67;;
16577;SDS011;8401;52.528;13.340;2022-12-18T09:37:18;34.27;;;14.10;;
16577;SDS011;8401;52.528;13.340;2022-12-18T09:39:43;31.53;;;13.60;;
16577;SDS011;8401;52.528;13.340;2022-12-18T09:42:21;25.27;;;11.97;;
16577;SDS011;8401;52.528;13.340;2022-12-18T09:44:52;10.43;;;5.30;;
16577;SDS011;8401;52.528;13.340;2022-12-18T09:49:51;28.07;;;10.90;;
16577;SDS011;8401;52.528;13.340;2022-12-18T09:52:26;24.47;;;11.57;;
16577;SDS011;8401;52.528;13.340;2022-12-18T09:57:45;31.80;;;12.90;;
16577;SDS011;8401;52.528;13.340;2022-12-18T10:00:19;29.97;;;13.30;;
16577;SDS011;8401;52.528;13.340;2022-12-18T10:02:47;16.23;;;8.03;;
16577;SDS011;8401;52.528;13.340;2022-12-18T10:05:16;34.40;;;12.47;;
16577;SDS011;8401;52.528;13.340;2022-12-18T10:10:26;37.57;;;14.50;;
16577;SDS011;8401;52.528;13.340;2022-12-18T10:13:01;38.93;;;14.17;;
16577;SDS011;8401;52.528;13.340;2022-12-18T10:15:39;30.43;;;11.13;;
16577;SDS011;8401;52.528;13.340;2022-12-18T10:18:29;30.93;;;11.80;;
16577;SDS011;8401;52.528;13.340;2022-12-18T10:21:21;23.27;;;8.77;;
16577;SDS011;8401;52.528;13.340;2022-12-18T10:26:47;34.03;;;13.23;;
16577;SDS011;8401;52.528;13.340;2022-12-18T10:29:13;16.90;;;7.90;;
16577;SDS011;8401;52.528;13.340;2022-12-18T10:31:40;33.27;;;14.90;;
16577;SDS011;8401;52.528;13.340;2022-12-18T10:34:09;43.83;;;14.30;;
16577;SDS011;8401;52.528;13.340;2022-12-18T10:36:36;21.90;;;8.07;;
16577;SDS011;8401;52.528;13.340;2022-12-18T10:39:15;35.07;;;12.90;;
16577;SDS011;8401;52.528;13.340;2022-12-18T10:41:43;35.07;;;13.73;;
16577;SDS011;8401;52.528;13.340;2022-12-18T10:44:11;14.87;;;7.00;;
16577;SDS011;8401;52.528;13.340;2022-12-18T10:46:40;34.87;;;15.07;;
16577;SDS011;8401;52.528;13.340;2022-12-18T10:49:07;36.13;;;12.53;;
16577;SDS011;8401;52.528;13.340;2022-12-18T10:51:46;25.30;;;10.23;;
16577;SDS011;8401;52.528;13.340;2022-12-18T10:54:19;25.63;;;10.77;;
16577;SDS011;8401;52.528;13.340;2022-12-18T10:56:47;33.97;;;13.00;;
16577;SDS011;8401;52.528;13.340;2022-12-18T10:59:14;35.33;;;13.47;;
16577;SDS011;8401;52.528;13.340;2022-12-18T11:01:52;19.23;;;7.47;;
16577;SDS011;8401;52.528;13.340;2022-12-18T11:04:23;38.30;;;14.93;;
16577;SDS011;8401;52.528;13.340;2022-12-18T11:09:30;35.60;;;15.17;;
16577;SDS011;8401;52.528;13.340;2022-12-18T11:11:58;40.27;;;16.47;;
16577;SDS011;8401;52.528;13.340;2022-12-18T11:14:31;39.80;;;15.13;;
16577;SDS011;8401;52.528;13.340;2022-12-18T11:16:59;37.97;;;15.90;;
16577;SDS011;8401;52.528;13.340;2022-12-18T11:19:34;42.70;;;17.93;;
16577;SDS011;8401;52.528;13.340;2022-12-18T11:22:03;28.83;;;10.37;;
16577;SDS011;8401;52.528;13.340;2022-12-18T11:24:58;26.30;;;11.90;;
16577;SDS011;8401;52.528;13.340;2022-12-18T11:27:30;40.33;;;15.47;;
16577;SDS011;8401;52.528;13.340;2022-12-18T11:30:13;35.10;;;16.17;;
16577;SDS011;8401;52.528;13.340;2022-12-18T11:35:53;38.53;;;16.40;;
16577;SDS011;8401;52.528;13.340;2022-12-18T11:44:26;44.13;;;15.40;;
16577;SDS011;8401;52.528;13.340;2022-12-18T11:47:02;34.30;;;13.40;;
16577;SDS011;8401;52.528;13.340;2022-12-18T11:49:34;14.37;;;7.43;;
16577;SDS011;8401;52.528;13.340;2022-12-18T11:54:41;34.43;;;13.20;;
16577;SDS011;8401;52.528;13.340;2022-12-18T11:57:10;22.50;;;8.47;;
16577;SDS011;8401;52.528;13.340;2022-12-18T11:59:53;33.33;;;12.83;;
16577;SDS011;8401;52.528;13.340;2022-12-18T12:08:01;25.83;;;10.90;;
16577;SDS011;8401;52.528;13.340;2022-12-18T12:18:25;34.37;;;14.03;;
16577;SDS011;8401;52.528;13.340;2022-12-18T12:26:12;32.03;;;14.97;;
16577;SDS011;8401;52.528;13.340;2022-12-18T12:34:15;34.30;;;14.80;;
16577;SDS011;8401;52.528;13.340;2022-12-18T12:37:06;39.70;;;15.17;;
16577;SDS011;8401;52.528;13.340;2022-12-18T12:39:43;38.90;;;15.43;;
16577;SDS011;8401;52.528;13.340;2022-12-18T12:42:14;25.50;;;11.43;;
16577;SDS011;8401;52.528;13.340;2022-12-18T12:45:04;29.47;;;13.20;;
16577;SDS011;8401;52.528;13.340;2022-12-18T12:47:33;33.77;;;12.73;;
16577;SDS011;8401;52.528;13.340;2022-12-18T12:50:06;33.77;;;15.30;;
16577;SDS011;8401;52.528;13.340;2022-12-18T12:52:43;30.60;;;13.70;;
16577;SDS011;8401;52.528;13.340;2022-12-18T12:55:16;29.20;;;12.17;;
16577;SDS011;8401;52.528;13.340;2022-12-18T13:00:21;34.77;;;15.60;;
16577;SDS011;8401;52.528;13.340;2022-12-18T13:05:49;33.67;;;12.97;;
16577;SDS011;8401;52.528;13.340;2022-12-18T13:08:24;29.03;;;12.43;;
16577;SDS011;8401;52.528;13.340;2022-12-18T13:10:53;25.50;;;12.07;;
16577;SDS011;8401;52.528;13.340;2022-12-18T13:16:17;24.90;;;10.87;;
16577;SDS011;8401;52.528;13.340;2022-12-18T13:18:48;26.53;;;12.33;;
16577;SDS011;8401;52.528;13.340;2022-12-18T13:21:20;28.30;;;12.03;;
16577;SDS011;8401;52.528;13.340;2022-12-18T13:23:48;33.67;;;13.63;;
16577;SDS011;8401;52.528;13.340;2022-12-18T13:31:12;34.27;;;14.23;;
16577;SDS011;8401;52.528;13.340;2022-12-18T13:34:31;32.20;;;16.17;;
16577;SDS011;8401;52.528;13.340;2022-12-18T13:36:52;28.23;;;13.50;;
16577;SDS011;8401;52.528;13.340;2022-12-18T13:41:51;32.20;;;14.17;;
16577;SDS011;8401;52.528;13.340;2022-12-18T13:44:34;29.07;;;14.73;;
16577;SDS011;8401;52.528;13.340;2022-12-18T13:47:05;28.23;;;10.37;;
16577;SDS011;8401;52.528;13.340;2022-12-18T13:50:19;21.17;;;9.07;;
16577;SDS011;8401;52.528;13.340;2022-12-18T13:52:48;11.13;;;6.33;;
16577;SDS011;8401;52.528;13.340;2022-12-18T13:55:18;17.13;;;7.57;;
16577;SDS011;8401;52.528;13.340;2022-12-18T13:57:45;27.10;;;12.60;;
16577;SDS011;8401;52.528;13.340;2022-12-18T14:00:30;32.03;;;14.77;;
16577;SDS011;8401;52.528;13.340;2022-12-18T14:02:57;26.00;;;12.47;;
16577;SDS011;8401;52.528;13.340;2022-12-18T14:05:24;37.10;;;16.50;;
16577;SDS011;8401;52.528;13.340;2022-12-18T14:07:52;32.97;;;14.90;;
16577;SDS011;8401;52.528;13.340;2022-12-18T14:10:18;29.30;;;14.10;;
16577;SDS011;8401;52.528;13.340;2022-12-18T14:12:47;30.33;;;13.30;;
16577;SDS011;8401;52.528;13.340;2022-12-18T14:17:52;29.27;;;13.10;;
16577;SDS011;8401;52.528;13.340;2022-12-18T14:20:27;36.53;;;16.07;;
16577;SDS011;8401;52.528;13.340;2022-12-18T14:22:54;38.07;;;17.87;;
16577;SDS011;8401;52.528;13.340;2022-12-18T14:30:39;18.33;;;10.73;;
16577;SDS011;8401;52.528;13.340;2022-12-18T14:33:10;31.30;;;15.13;;
16577;SDS011;8401;52.528;13.340;2022-12-18T14:35:40;36.43;;;16.93;;
16577;SDS011;8401;52.528;13.340;2022-12-18T14:38:21;28.50;;;13.27;;
16577;SDS011;8401;52.528;13.340;2022-12-18T14:40:52;23.77;;;10.80;;
16577;SDS011;8401;52.528;13.340;2022-12-18T14:43:19;24.57;;;12.17;;
16577;SDS011;8401;52.528;13.340;2022-12-18T14:45:45;29.50;;;14.53;;
16577;SDS011;8401;52.528;13.340;2022-12-18T14:50:54;33.37;;;15.50;;
16577;SDS011;8401;52.528;13.340;2022-12-18T14:53:48;34.30;;;14.13;;
16577;SDS011;8401;52.528;13.340;2022-12-18T14:56:25;35.63;;;17.67;;
16577;SDS011;8401;52.528;13.340;2022-12-18T14:59:00;28.03;;;12.37;;
16577;SDS011;8401;52.528;13.340;2022-12-18T15:04:05;24.83;;;11.30;;
16577;SDS011;8401;52.528;13.340;2022-12-18T15:07:04;24.40;;;13.73;;
16577;SDS011;8401;52.528;13.340;2022-12-18T15:09:33;13.57;;;7.47;;
16577;SDS011;8401;52.528;13.340;2022-12-18T15:12:00;24.30;;;11.97;;
16577;SDS011;8401;52.528;13.340;2022-12-18T15:17:00;19.40;;;8.63;;
16577;SDS011;8401;52.528;13.340;2022-12-18T15:19:34;15.80;;;8.53;;
16577;SDS011;8401;52.528;13.340;2022-12-18T15:22:14;14.50;;;6.97;;
16577;SDS011;8401;52.528;13.340;2022-12-18T15:24:45;17.83;;;8.13;;
16577;SDS011;8401;52.528;13.340;2022-12-18T15:30:18;24.10;;;12.47;;
16577;SDS011;8401;52.528;13.340;2022-12-18T15:32:45;19.00;;;8.37;;
16577;SDS011;8401;52.528;13.340;2022-12-18T15:35:16;16.23;;;8.43;;
16577;SDS011;8401;52.528;13.340;2022-12-18T15:37:46;16.50;;;9.43;;
16577;SDS011;8401;52.528;13.340;2022-12-18T15:40:14;26.40;;;11.90;;
16577;SDS011;8401;52.528;13.340;2022-12-18T15:42:41;17.20;;;8.27;;
16577;SDS011;8401;52.528;13.340;2022-12-18T15:45:25;25.30;;;13.20;;
16577;SDS011;8401;52.528;13.340;2022-12-18T15:47:52;23.60;;;12.50;;
16577;SDS011;8401;52.528;13.340;2022-12-18T15:50:17;20.47;;;10.47;;
16577;SDS011;8401;52.528;13.340;2022-12-18T15:52:47;18.87;;;9.60;;
16577;SDS011;8401;52.528;13.340;2022-12-18T15:55:17;28.97;;;13.60;;
16577;SDS011;8401;52.528;13.340;2022-12-18T15:58:04;23.73;;;11.90;;
16577;SDS011;8401;52.528;13.340;2022-12-18T16:00:31;25.87;;;14.43;;
16577;SDS011;8401;52.528;13.340;2022-12-18T16:02:58;26.57;;;12.23;;
16577;SDS011;8401;52.528;13.340;2022-12-18T16:05:24;20.37;;;11.33;;
16577;SDS011;8401;52.528;13.340;2022-12-18T16:07:51;13.17;;;7.67;;
16577;SDS011;8401;52.528;13.340;2022-12-18T16:10:17;21.93;;;11.43;;
16577;SDS011;8401;52.528;13.340;2022-12-18T16:12:43;20.03;;;9.37;;
16577;SDS011;8401;52.528;13.340;2022-12-18T16:15:10;19.20;;;10.37;;
16577;SDS011;8401;52.528;13.340;2022-12-18T16:17:38;25.47;;;12.07;;
16577;SDS011;8401;52.528;13.340;2022-12-18T16:20:05;23.63;;;12.07;;
16577;SDS011;8401;52.528;13.340;2022-12-18T16:22:36;13.27;;;6.50;;
16577;SDS011;8401;52.528;13.340;2022-12-18T16:25:02;17.90;;;9.50;;
16577;SDS011;8401;52.528;13.340;2022-12-18T16:27:28;15.80;;;8.63;;
16577;SDS011;8401;52.528;13.340;2022-12-18T16:29:53;22.33;;;11.57;;
16577;SDS011;8401;52.528;13.340;2022-12-18T16:32:20;29.03;;;11.60;;
16577;SDS011;8401;52.528;13.340;2022-12-18T16:34:46;26.80;;;12.87;;
16577;SDS011;8401;52.528;13.340;2022-12-18T16:37:13;16.67;;;7.80;;
16577;SDS011;8401;52.528;13.340;2022-12-18T16:39:41;11.83;;;5.07;;